Corlu, Turkey

3:43 AM EET on January 26, 2015 (GMT +0200)
Corlu Air Base | Change Station
CLOSE
Current Station
Airport
Location: Corlu,
Elevation: 568 ft
Nearby Weather Stations

Elev 568 ft 41.14 °N, 27.92 °E | Updated 23 minutes ago

Mostly Cloudy
Mostly Cloudy
46 °F
Feels Like 45 °F
N
4
Wind Variable Wind from North

Today
High -- | Low -- °F
--% Chance of Precip.
Yesterday
High -- | Low -- °F
Precip. -- in
7:24 AM 5:17 PM
Waxing Crescent, 38% visible
Pressure 29.98 in
Visibility 6.2 miles
Clouds Scattered Clouds 3500 ft
Mostly Cloudy 8000 ft
Windchill 45 °F
Dew Point 45 °F
Humidity 93%
Rainfall 0.00 in
Snow Depth Not available.
UV 0 out of 12
Pollen Not available.
Air Quality Not available.
Flu Activity Not available.
METAR LTBU 260120Z 01003KT 9999 SCT035 BKN080 08/07 Q1015 RESHRA

More Conditions Fewer Conditions

Pressure 29.98 in
Visibility 6.2 miles
Clouds Scattered Clouds 3500 ft
Mostly Cloudy 8000 ft
Windchill 45 °F
Dew Point 45 °F
Humidity 93%
Rainfall 0.00 in
Snow Depth Not available.
UV 0 out of 12
Pollen Not available.
Air Quality Not available.
Flu Activity Not available.
METAR LTBU 260120Z 01003KT 9999 SCT035 BKN080 08/07 Q1015 RESHRA

More Conditions Fewer Conditions

10-Day Weather Forecast

Almanac

Astronomy

Jan. 26, 2015 Rise Set
Actual Time
Civil Twilight
Nautical Twilight
Astronomical Twilight
Moon
Length of Visible Light
Length of Day
Tomorrow will be .
, % of the Moon is Illuminated

Today's Extremes

Country Highs Country Lows

Community

WunderPhotos

Upload Photos

1,790,045 photos uploaded!

WunderBlogs® & News

Nearby

Air Quality

  Air Quality AQ Index Pollutant
Not available.

Snow Depth

Station Depth Elevation

Earthquake Activity

City Distance Mag. Time & Date
Minimum magnitude displayed is 2.5.

Coastal Water Temperatures

Place Temperature

Nearby Weather Stations